San Cosme, Argentina
Current Conditions -  °F | °C
As of 3:00 PM on Tuesday 21 Oct 2014 (Local Time) from SARC Reporting Station
Clear Clear  
Wind Chill: 32°   Ceiling: Unl
Heat Index: 32°   Visibility: 6mi
Dew Point: 10°   Wind: 10mph
Humidity: 26%   Direction: 90°E
Pressure: 30.03"   Gusts: NA
Location:  27.37°S, 58.52°W
Report Text: SARC 211800Z 09009KT CAVOK 32/10 Q1017
Loading
Personal Weather Stations






























Interactive Weather Map
Tropical Storm Tracking
New forecast layout! Learn more

10-Day Weather Forecast

Advertisements
Track Severe Weather on mobile